createdAt,value
2019-02-09T00:01:38.163Z,95959.95
2019-02-09T00:04:04.509Z,95956.63
2019-02-09T00:06:32.291Z,95954.72
2019-02-09T00:08:58.104Z,95963.00
2019-02-09T00:11:27.300Z,95954.68
2019-02-09T00:13:53.425Z,95954.68
2019-02-09T00:16:19.356Z,95957.95
2019-02-09T00:18:45.160Z,95954.74
2019-02-09T00:21:11.027Z,95949.88
2019-02-09T00:23:39.739Z,95943.88
2019-02-09T00:26:05.963Z,95958.58
2019-02-09T00:28:34.687Z,95937.16
2019-02-09T00:31:00.807Z,95954.77
2019-02-09T00:33:29.386Z,95928.31
2019-02-09T00:35:55.303Z,95925.59
2019-02-09T00:38:24.200Z,95922.86
2019-02-09T00:40:50.056Z,95918.25
2019-02-09T00:43:18.940Z,95917.95
2019-02-09T00:45:44.860Z,95919.23
2019-02-09T00:48:14.027Z,95917.33
2019-02-09T00:50:40.209Z,95905.43
2019-02-09T00:53:06.310Z,95898.38
2019-02-09T00:55:32.116Z,95892.47
2019-02-09T00:57:58.080Z,95885.72
2019-02-09T01:00:31.754Z,95887.25
2019-02-09T01:02:58.178Z,95887.23
2019-02-09T01:05:28.142Z,95885.52
2019-02-09T01:07:54.157Z,95884.39
2019-02-09T01:10:20.438Z,95880.58
2019-02-09T01:12:46.288Z,95880.20
2019-02-09T01:15:14.216Z,95881.78
2019-02-09T01:17:40.046Z,95879.61
2019-02-09T01:20:09.593Z,95878.17
2019-02-09T01:22:35.849Z,95879.14
2019-02-09T01:25:03.262Z,95869.91
2019-02-09T01:27:29.076Z,95856.05
2019-02-09T01:30:02.275Z,95850.42
2019-02-09T01:32:22.953Z,95836.12
2019-02-09T01:34:48.949Z,95832.53
2019-02-09T01:37:14.766Z,95837.82
2019-02-09T01:39:40.870Z,95835.85
2019-02-09T01:42:07.759Z,95822.95
2019-02-09T01:44:33.868Z,95824.14
2019-02-09T01:46:59.685Z,95812.22
2019-02-09T01:49:25.499Z,95815.52
2019-02-09T01:51:54.098Z,95805.97
2019-02-09T01:54:20.224Z,95808.12
2019-02-09T01:56:48.970Z,95804.92
2019-02-09T01:59:15.105Z,95813.01
2019-02-09T02:01:44.279Z,95808.80
2019-02-09T02:04:10.373Z,95788.59
2019-02-09T02:06:36.314Z,95789.78
2019-02-09T02:09:04.971Z,95777.34
2019-02-09T02:11:31.072Z,95780.63
2019-02-09T02:13:57.160Z,95775.41
2019-02-09T02:16:23.510Z,95776.50
2019-02-09T02:18:52.694Z,95777.20
2019-02-09T02:21:18.816Z,95768.88
2019-02-09T02:23:44.645Z,95764.24
2019-02-09T02:26:10.753Z,95768.89
2019-02-09T02:28:38.782Z,95767.05
2019-02-09T02:31:04.733Z,95777.77
2019-02-09T02:33:36.306Z,95770.02
2019-02-09T02:36:02.417Z,95786.25
2019-02-09T02:38:28.263Z,95783.88
2019-02-09T02:40:54.446Z,95793.50
2019-02-09T02:43:20.309Z,95798.30
2019-02-09T02:45:46.358Z,95795.51
2019-02-09T02:48:12.450Z,95795.97
2019-02-09T02:50:41.319Z,95783.63
2019-02-09T02:53:07.154Z,95806.46
2019-02-09T02:55:35.726Z,95803.84
2019-02-09T02:58:01.560Z,95809.42
2019-02-09T03:00:32.892Z,95808.01
2019-02-09T03:02:59.342Z,95810.88
2019-02-09T03:05:25.386Z,95810.52
2019-02-09T03:07:51.902Z,95801.19
2019-02-09T03:10:19.711Z,95802.56
2019-02-09T03:12:45.654Z,95799.33
2019-02-09T03:15:20.132Z,95807.09
2019-02-09T03:17:46.098Z,95816.78
2019-02-09T03:20:35.203Z,95802.56
2019-02-09T03:23:01.054Z,95810.80
2019-02-09T03:25:28.991Z,95806.26
2019-02-09T03:27:55.113Z,95797.56
2019-02-09T03:30:22.623Z,95801.17
2019-02-09T03:32:48.565Z,95806.35
2019-02-09T03:35:15.222Z,95819.57
2019-02-09T03:37:41.443Z,95817.55
2019-02-09T03:40:21.666Z,95832.51
2019-02-09T03:42:47.723Z,95824.30
2019-02-09T03:45:16.323Z,95843.04
2019-02-09T03:47:42.435Z,95845.24
2019-02-09T03:50:14.013Z,95848.34
2019-02-09T03:52:39.864Z,95863.58
2019-02-09T03:55:06.077Z,95851.44
2019-02-09T03:57:31.925Z,95719.56
2019-02-09T03:59:58.002Z,95854.74
2019-02-09T04:02:24.066Z,95849.15
2019-02-09T04:04:50.196Z,95867.20
2019-02-09T04:07:16.002Z,95847.98
2019-02-09T04:09:41.849Z,95850.38
2019-02-09T04:12:07.774Z,95843.61
2019-02-09T04:14:33.620Z,95851.61
2019-02-09T04:16:59.437Z,95838.63
2019-02-09T04:19:25.329Z,95859.50
2019-02-09T04:21:51.150Z,95859.50
2019-02-09T04:24:17.018Z,95882.33
2019-02-09T04:26:42.857Z,95865.11
2019-02-09T04:29:08.691Z,95851.79
2019-02-09T04:31:34.624Z,95874.05
2019-02-09T04:34:00.455Z,95834.59
2019-02-09T04:36:26.306Z,95867.55
2019-02-09T04:38:52.130Z,95866.12
2019-02-09T04:41:17.974Z,95862.30
2019-02-09T04:43:43.867Z,95824.15
2019-02-09T04:46:09.702Z,95866.17
2019-02-09T04:48:35.548Z,95867.57
2019-02-09T04:51:01.372Z,95865.06
2019-02-09T04:53:27.194Z,95850.13
2019-02-09T04:55:53.061Z,95852.48
2019-02-09T04:58:18.879Z,95845.30
2019-02-09T05:00:44.724Z,95839.22
2019-02-09T05:03:10.874Z,95843.27
2019-02-09T05:05:36.695Z,95845.99
2019-02-09T05:08:02.658Z,95857.78
2019-02-09T05:10:28.898Z,95856.19
2019-02-09T05:12:54.756Z,95849.00
2019-02-09T05:15:21.253Z,95869.77
2019-02-09T05:17:47.684Z,95873.45
2019-02-09T05:20:15.642Z,95867.59
2019-02-09T05:22:41.476Z,95874.52
2019-02-09T05:25:09.898Z,95875.89
2019-02-09T05:27:35.766Z,95877.50
2019-02-09T05:30:02.577Z,95874.99
2019-02-09T05:32:28.708Z,95874.55
2019-02-09T05:34:54.541Z,95873.93
2019-02-09T05:37:20.401Z,95883.03
2019-02-09T05:39:46.234Z,95871.05
2019-02-09T05:42:16.899Z,95874.25
2019-02-09T05:44:42.742Z,95886.91
2019-02-09T05:47:08.833Z,95868.34
2019-02-09T05:49:34.679Z,95862.34
2019-02-09T05:52:00.950Z,95868.22
2019-02-09T05:54:27.326Z,95874.59
2019-02-09T05:56:53.128Z,95879.64
2019-02-09T05:59:22.351Z,95882.11
2019-02-09T06:01:48.203Z,95906.42
2019-02-09T06:04:17.429Z,95913.73
2019-02-09T06:06:43.234Z,95927.50
2019-02-09T06:09:12.323Z,95916.87
2019-02-09T06:11:38.306Z,95921.48
2019-02-09T06:14:05.958Z,95915.58
2019-02-09T06:16:31.808Z,95929.48
2019-02-09T06:19:00.421Z,95925.54
2019-02-09T06:21:26.319Z,95932.73
2019-02-09T06:23:52.105Z,95917.61
2019-02-09T06:26:18.239Z,95915.39
2019-02-09T06:28:44.043Z,95924.33
2019-02-09T06:31:12.915Z,95927.86
2019-02-09T06:33:38.725Z,95927.97
2019-02-09T06:36:07.766Z,95928.96
2019-02-09T06:38:33.604Z,95919.23
2019-02-09T06:41:02.697Z,95923.55
2019-02-09T06:43:28.543Z,95931.98
2019-02-09T06:45:57.564Z,95928.83
2019-02-09T06:48:46.310Z,95929.86
2019-02-09T06:51:12.449Z,95928.27
2019-02-09T06:53:38.277Z,95933.56
2019-02-09T06:56:04.232Z,95931.55
2019-02-09T06:58:30.391Z,95943.56
2019-02-09T07:00:56.211Z,95944.49
2019-02-09T07:03:22.096Z,95945.23
2019-02-09T07:05:48.229Z,95951.00
2019-02-09T07:08:14.054Z,95946.39
2019-02-09T07:10:40.255Z,95958.29
2019-02-09T07:13:06.135Z,95958.29
2019-02-09T07:15:33.668Z,95962.45
2019-02-09T07:17:59.493Z,95965.88
2019-02-09T07:20:25.443Z,95963.50
2019-02-09T07:22:51.783Z,95961.76
2019-02-09T07:25:18.124Z,95971.30
2019-02-09T07:27:44.045Z,95964.47
2019-02-09T07:30:16.104Z,95976.27
2019-02-09T07:32:41.933Z,95985.53
2019-02-09T07:35:10.448Z,95980.44
2019-02-09T07:37:36.586Z,95996.76
2019-02-09T07:40:06.210Z,96002.06
2019-02-09T07:42:32.164Z,96010.81
2019-02-09T07:44:58.004Z,96011.58
2019-02-09T07:47:23.831Z,96020.64
2019-02-09T07:49:49.931Z,96028.67
2019-02-09T07:52:15.853Z,96039.70
2019-02-09T07:54:41.821Z,96046.08
2019-02-09T07:57:07.887Z,96039.75
2019-02-09T07:59:33.741Z,96071.80
2019-02-09T08:02:04.645Z,96058.28
2019-02-09T08:04:27.762Z,96059.53
2019-02-09T08:06:53.572Z,96099.97
2019-02-09T08:09:19.420Z,96072.53
2019-02-09T08:11:45.227Z,96087.08
2019-02-09T08:14:11.070Z,96095.28
2019-02-09T08:16:37.177Z,96082.25
2019-02-09T08:19:03.180Z,96081.16
2019-02-09T08:21:29.006Z,96087.97
2019-02-09T08:23:55.140Z,96079.42
2019-02-09T08:26:24.197Z,96089.66
2019-02-09T08:28:50.282Z,96107.86
2019-02-09T08:31:17.429Z,96105.16
2019-02-09T08:33:43.257Z,96109.03
2019-02-09T08:36:12.529Z,96115.52
2019-02-09T08:38:38.331Z,96116.66
2019-02-09T08:41:08.860Z,96119.25
2019-02-09T08:43:34.693Z,96112.39
2019-02-09T08:46:03.484Z,96118.09
2019-02-09T08:48:29.330Z,96113.61
2019-02-09T08:50:59.265Z,96110.47
2019-02-09T08:53:25.108Z,96105.50
2019-02-09T08:55:51.249Z,96102.16
2019-02-09T08:58:17.073Z,96096.91
2019-02-09T09:00:43.013Z,96103.02
2019-02-09T09:03:09.294Z,96101.13
2019-02-09T09:05:35.789Z,96099.39
2019-02-09T09:08:04.779Z,96101.39
2019-02-09T09:10:30.740Z,96105.94
2019-02-09T09:13:00.078Z,96101.13
2019-02-09T09:15:38.928Z,96102.77
2019-02-09T09:18:05.724Z,96107.91
2019-02-09T09:20:34.173Z,96105.48
2019-02-09T09:22:59.983Z,96117.62
2019-02-09T09:25:26.180Z,96116.74
2019-02-09T09:27:52.512Z,96112.77
2019-02-09T09:30:24.275Z,96123.41
2019-02-09T09:32:50.486Z,96125.89
2019-02-09T09:35:16.414Z,96125.86
2019-02-09T09:37:42.844Z,96126.99
2019-02-09T09:40:12.503Z,96132.03
2019-02-09T09:42:38.639Z,96135.93
2019-02-09T09:45:08.270Z,96139.36
2019-02-09T09:47:34.089Z,96137.52
2019-02-09T09:50:00.045Z,96158.49
2019-02-09T09:52:25.877Z,96163.71
2019-02-09T09:54:51.718Z,96175.70
2019-02-09T09:57:17.703Z,96165.03
2019-02-09T09:59:43.833Z,96181.31
2019-02-09T10:02:09.761Z,96182.42
2019-02-09T10:04:35.593Z,96187.36
2019-02-09T10:07:01.723Z,96191.45
2019-02-09T10:09:27.543Z,96198.73
2019-02-09T10:11:53.409Z,96202.46
2019-02-09T10:14:19.261Z,96192.28
2019-02-09T10:16:45.398Z,96210.48
2019-02-09T10:19:11.251Z,96206.47
2019-02-09T10:21:37.088Z,96209.16
2019-02-09T10:24:03.348Z,96201.58
2019-02-09T10:26:29.275Z,96217.85
2019-02-09T10:28:55.091Z,96226.08
2019-02-09T10:31:25.033Z,96223.11
2019-02-09T10:33:50.858Z,96227.98
2019-02-09T10:36:19.470Z,96220.47
2019-02-09T10:38:45.352Z,96239.23
2019-02-09T10:41:11.469Z,96226.84
2019-02-09T10:43:37.303Z,96244.83
2019-02-09T10:46:03.317Z,96248.50
2019-02-09T10:48:29.188Z,96251.01
2019-02-09T10:50:55.009Z,96236.38
2019-02-09T10:53:25.419Z,96238.70
2019-02-09T10:55:51.560Z,96243.53
2019-02-09T10:58:18.637Z,96172.48
2019-02-09T11:00:50.515Z,96247.59
2019-02-09T11:03:16.780Z,96251.31
2019-02-09T11:05:42.923Z,96231.62
2019-02-09T11:08:08.884Z,96224.84
2019-02-09T11:10:35.381Z,96228.55
2019-02-09T11:13:05.007Z,96229.84
2019-02-09T11:15:30.985Z,96227.12
2019-02-09T11:17:57.066Z,96219.23
2019-02-09T11:20:23.395Z,96221.37
2019-02-09T11:22:52.572Z,96227.52
2019-02-09T11:25:19.908Z,96244.64
2019-02-09T11:27:48.779Z,96229.98
2019-02-09T11:30:23.796Z,96241.31
2019-02-09T11:32:49.720Z,96242.58
2019-02-09T11:35:15.990Z,96234.91
2019-02-09T11:37:41.909Z,96227.63
2019-02-09T11:40:27.882Z,96224.20
2019-02-09T11:42:54.362Z,96233.21
2019-02-09T11:45:22.407Z,96223.25
2019-02-09T11:47:48.422Z,96221.63
2019-02-09T11:50:15.047Z,96227.81
2019-02-09T11:52:41.257Z,96221.52
2019-02-09T11:55:10.713Z,96227.99
2019-02-09T11:57:36.640Z,96223.16
2019-02-09T12:00:08.821Z,96223.91
2019-02-09T12:02:34.630Z,96222.84
2019-02-09T12:05:00.539Z,96226.69
2019-02-09T12:07:26.393Z,96221.13
2019-02-09T12:09:52.527Z,96226.16
2019-02-09T12:12:18.332Z,96217.19
2019-02-09T12:14:50.398Z,96215.73
2019-02-09T12:17:16.237Z,95988.59
2019-02-09T12:19:42.065Z,96218.58
2019-02-09T12:22:07.906Z,96216.26
2019-02-09T12:24:34.002Z,96217.07
2019-02-09T12:27:00.142Z,96214.26
2019-02-09T12:29:25.984Z,96216.72
2019-02-09T12:31:52.086Z,96203.63
2019-02-09T12:34:17.946Z,96211.36
2019-02-09T12:36:44.050Z,96219.63
2019-02-09T12:39:10.383Z,96206.37
2019-02-09T12:41:36.321Z,96218.30
2019-02-09T12:44:02.146Z,96244.91
2019-02-09T12:46:27.986Z,96214.41
2019-02-09T12:48:54.116Z,96219.44
2019-02-09T12:51:20.045Z,96216.16
2019-02-09T12:53:46.143Z,96227.89
2019-02-09T12:56:12.099Z,96218.08
2019-02-09T12:58:38.209Z,96210.86
2019-02-09T13:01:04.151Z,96216.78
2019-02-09T13:03:31.532Z,96215.63
2019-02-09T13:06:00.671Z,96209.08
2019-02-09T13:08:26.593Z,96215.08
2019-02-09T13:10:52.837Z,96205.97
2019-02-09T13:13:18.922Z,96210.54
2019-02-09T13:15:44.876Z,96208.48
2019-02-09T13:18:10.703Z,96209.31
2019-02-09T13:20:36.627Z,96203.00
2019-02-09T13:23:04.883Z,96204.30
2019-02-09T13:25:30.713Z,96212.73
2019-02-09T13:27:56.562Z,96206.81
2019-02-09T13:30:36.886Z,96211.13
2019-02-09T13:33:03.316Z,96218.20
2019-02-09T13:35:29.460Z,96221.61
2019-02-09T13:37:55.387Z,96211.91
2019-02-09T13:40:22.528Z,96213.22
2019-02-09T13:42:48.470Z,96209.83
2019-02-09T13:45:40.818Z,96214.63
2019-02-09T13:48:07.352Z,96217.95
2019-02-09T13:50:34.032Z,96208.34
2019-02-09T13:53:00.279Z,96216.72
2019-02-09T13:55:26.443Z,96222.44
2019-02-09T13:57:52.478Z,96226.09
2019-02-09T14:00:23.197Z,96225.64
2019-02-09T14:02:49.255Z,96215.16
2019-02-09T14:05:15.205Z,96222.77
2019-02-09T14:07:41.757Z,96229.84
2019-02-09T14:10:18.812Z,96225.73
2019-02-09T14:12:44.671Z,96226.09
2019-02-09T14:15:25.383Z,96227.51
2019-02-09T14:17:51.827Z,96227.23
2019-02-09T14:20:17.964Z,96229.50
2019-02-09T14:22:44.140Z,96241.70
2019-02-09T14:25:14.605Z,96236.81
2019-02-09T14:27:41.202Z,96237.02
2019-02-09T14:30:16.640Z,96237.75
2019-02-09T14:32:42.561Z,96233.67
2019-02-09T14:35:09.700Z,96247.30
2019-02-09T14:37:35.540Z,96243.98
2019-02-09T14:40:01.524Z,96237.22
2019-02-09T14:42:27.487Z,96236.12
2019-02-09T14:44:53.702Z,96235.91
2019-02-09T14:47:19.541Z,96240.00
2019-02-09T14:49:45.729Z,96237.70
2019-02-09T14:52:11.830Z,96239.56
2019-02-09T14:54:37.646Z,96232.59
2019-02-09T14:57:03.792Z,96238.43
2019-02-09T14:59:29.609Z,96246.50
2019-02-09T15:01:55.549Z,96249.83
2019-02-09T15:04:21.694Z,96252.06
2019-02-09T15:06:47.791Z,96248.00
2019-02-09T15:09:13.621Z,96247.80
2019-02-09T15:11:39.774Z,96246.95
2019-02-09T15:14:05.800Z,96217.67
2019-02-09T15:16:32.632Z,96241.95
2019-02-09T15:18:58.439Z,96249.02
2019-02-09T15:21:24.571Z,96240.74
2019-02-09T15:23:50.456Z,96249.09
2019-02-09T15:26:16.265Z,96249.30
2019-02-09T15:28:43.008Z,96249.47
2019-02-09T15:31:08.968Z,96252.55
2019-02-09T15:33:34.810Z,96262.92
2019-02-09T15:36:00.721Z,96271.36
2019-02-09T15:38:26.554Z,96268.77
2019-02-09T15:40:52.423Z,96264.59
2019-02-09T15:43:18.264Z,96266.16
2019-02-09T15:45:44.378Z,96268.11
2019-02-09T15:48:10.216Z,96273.75
2019-02-09T15:50:36.069Z,96273.75
2019-02-09T15:53:01.921Z,96264.75
2019-02-09T15:55:28.026Z,96266.89
2019-02-09T15:57:53.896Z,96269.69
2019-02-09T16:00:30.248Z,96287.29
2019-02-09T16:02:57.515Z,96292.27
2019-02-09T16:05:24.017Z,96246.67
2019-02-09T16:07:50.154Z,96302.11
2019-02-09T16:10:20.265Z,96294.69
2019-02-09T16:12:46.376Z,96294.40
2019-02-09T16:15:15.275Z,96288.11
2019-02-09T16:17:41.423Z,96283.36
2019-02-09T16:20:11.039Z,96292.41
2019-02-09T16:22:36.890Z,96297.80
2019-02-09T16:25:05.742Z,96295.28
2019-02-09T16:27:31.811Z,96310.57
2019-02-09T16:29:57.649Z,96294.56
2019-02-09T16:32:23.559Z,96297.42
2019-02-09T16:34:49.412Z,96296.29
2019-02-09T16:37:15.238Z,96303.34
2019-02-09T16:39:41.378Z,96309.09
2019-02-09T16:42:07.469Z,96307.40
2019-02-09T16:44:33.315Z,96312.98
2019-02-09T16:46:59.134Z,96251.80
2019-02-09T16:49:24.972Z,96316.30
2019-02-09T16:51:50.969Z,96318.15
2019-02-09T16:54:17.080Z,96314.07
2019-02-09T16:56:42.941Z,96303.04
2019-02-09T16:59:08.954Z,96302.75
2019-02-09T17:01:38.244Z,96309.79
2019-02-09T17:04:04.157Z,96129.23
2019-02-09T17:06:29.981Z,96287.67
2019-02-09T17:08:55.825Z,96293.45
2019-02-09T17:11:21.665Z,96303.23
2019-02-09T17:13:47.493Z,96303.78
2019-02-09T17:16:13.329Z,96302.13
2019-02-09T17:18:39.159Z,96302.13
2019-02-09T17:21:05.029Z,96302.52
2019-02-09T17:23:30.877Z,96304.55
2019-02-09T17:25:56.685Z,96296.41
2019-02-09T17:28:22.628Z,96311.03
2019-02-09T17:30:48.488Z,96309.16
2019-02-09T17:33:14.691Z,96315.08
2019-02-09T17:35:40.509Z,96309.89
2019-02-09T17:38:06.709Z,96318.06
2019-02-09T17:40:35.771Z,96326.72
2019-02-09T17:43:01.668Z,96323.76
2019-02-09T17:45:30.425Z,96315.12
2019-02-09T17:47:56.249Z,96341.45
2019-02-09T17:50:22.609Z,96325.91
2019-02-09T17:52:48.526Z,96327.72
2019-02-09T17:55:18.659Z,96316.17
2019-02-09T17:57:44.776Z,96323.02
2019-02-09T18:00:13.695Z,96331.84
2019-02-09T18:02:39.513Z,96316.08
2019-02-09T18:05:05.566Z,96322.75
2019-02-09T18:07:31.689Z,96321.66
2019-02-09T18:09:57.557Z,96320.55
2019-02-09T18:12:23.755Z,96328.03
2019-02-09T18:14:49.897Z,96330.70
2019-02-09T18:17:15.817Z,96331.49
2019-02-09T18:19:42.774Z,96331.12
2019-02-09T18:22:09.096Z,96328.64
2019-02-09T18:24:34.965Z,96334.05
2019-02-09T18:27:00.790Z,96335.27
2019-02-09T18:29:26.918Z,96333.79
2019-02-09T18:31:52.756Z,96331.64
2019-02-09T18:34:18.616Z,96330.23
2019-02-09T18:36:44.705Z,96324.20
2019-02-09T18:39:10.636Z,96328.27
2019-02-09T18:41:36.528Z,96333.16
2019-02-09T18:44:02.826Z,96338.05
2019-02-09T18:46:28.665Z,96334.48
2019-02-09T18:48:54.815Z,96330.86
2019-02-09T18:51:24.403Z,96315.43
2019-02-09T18:53:50.529Z,96343.70
2019-02-09T18:56:19.695Z,96328.48
2019-02-09T18:58:45.483Z,96353.56
2019-02-09T19:01:14.373Z,96288.72
2019-02-09T19:03:40.189Z,96332.00
2019-02-09T19:06:09.092Z,96325.97
2019-02-09T19:08:34.929Z,96334.59
2019-02-09T19:11:03.749Z,96317.94
2019-02-09T19:13:29.633Z,96339.21
2019-02-09T19:15:55.597Z,96324.52
2019-02-09T19:18:21.411Z,96318.72
2019-02-09T19:20:54.094Z,96312.87
2019-02-09T19:23:20.235Z,96332.96
2019-02-09T19:25:46.473Z,96321.02
2019-02-09T19:28:12.286Z,96320.34
2019-02-09T19:30:38.249Z,96313.13
2019-02-09T19:33:05.141Z,96300.92
2019-02-09T19:35:30.950Z,96296.08
2019-02-09T19:37:59.812Z,96301.62
2019-02-09T19:40:26.728Z,96316.86
2019-02-09T19:42:56.028Z,96286.97
2019-02-09T19:45:28.749Z,96283.64
2019-02-09T19:47:54.604Z,96285.86
2019-02-09T19:50:20.447Z,96286.05
2019-02-09T19:52:46.255Z,96285.53
2019-02-09T19:55:22.216Z,96283.38
2019-02-09T19:57:48.403Z,96284.50
2019-02-09T20:00:38.563Z,96295.03
2019-02-09T20:03:05.012Z,96286.23
2019-02-09T20:05:30.856Z,96283.84
2019-02-09T20:07:56.700Z,96278.92
2019-02-09T20:10:29.314Z,96283.35
2019-02-09T20:12:55.241Z,96272.03
2019-02-09T20:15:21.066Z,96274.63
2019-02-09T20:17:46.921Z,96280.17
2019-02-09T20:20:17.220Z,96269.70
2019-02-09T20:22:43.171Z,96275.70
2019-02-09T20:25:17.420Z,96268.30
2019-02-09T20:27:43.514Z,96267.39
2019-02-09T20:30:13.132Z,96267.41
2019-02-09T20:32:38.975Z,96267.52
2019-02-09T20:35:08.595Z,96263.70
2019-02-09T20:37:34.542Z,96269.73
2019-02-09T20:40:00.362Z,96270.72
2019-02-09T20:42:26.280Z,96273.44
2019-02-09T20:44:52.389Z,96271.03
2019-02-09T20:47:18.257Z,96270.18
2019-02-09T20:49:44.384Z,96270.11
2019-02-09T20:52:10.191Z,96269.30
2019-02-09T20:54:36.032Z,96262.22
2019-02-09T20:57:01.841Z,96268.38
2019-02-09T20:59:33.966Z,96265.41
2019-02-09T21:01:59.799Z,96213.98
2019-02-09T21:04:25.664Z,96276.65
2019-02-09T21:06:51.487Z,96255.69
2019-02-09T21:09:17.310Z,96264.13
2019-02-09T21:11:43.159Z,96257.93
2019-02-09T21:14:08.961Z,96254.97
2019-02-09T21:16:34.788Z,96263.50
2019-02-09T21:19:00.633Z,96261.36
2019-02-09T21:21:26.435Z,96260.62
2019-02-09T21:23:52.490Z,96259.70
2019-02-09T21:26:18.305Z,96258.28
2019-02-09T21:28:44.148Z,96260.99
2019-02-09T21:31:09.987Z,96260.62
2019-02-09T21:33:35.825Z,96255.88
2019-02-09T21:36:01.632Z,96254.48
2019-02-09T21:38:27.483Z,96253.97
2019-02-09T21:40:53.313Z,96246.65
2019-02-09T21:43:19.423Z,96247.32
2019-02-09T21:45:45.794Z,96244.81
2019-02-09T21:48:11.593Z,96243.14
2019-02-09T21:50:37.809Z,96235.08
2019-02-09T21:53:05.214Z,96240.36
2019-02-09T21:55:31.059Z,96230.09
2019-02-09T21:57:57.060Z,96225.59
2019-02-09T22:00:26.120Z,96228.55
2019-02-09T22:02:52.335Z,96231.83
2019-02-09T22:05:18.518Z,96227.05
2019-02-09T22:07:44.340Z,96224.67
2019-02-09T22:10:16.558Z,96230.44
2019-02-09T22:12:42.613Z,96220.59
2019-02-09T22:15:10.678Z,96223.72
2019-02-09T22:17:36.664Z,96224.69
2019-02-09T22:20:06.331Z,96221.11
2019-02-09T22:22:32.756Z,96230.54
2019-02-09T22:24:58.813Z,96223.15
2019-02-09T22:27:25.091Z,96221.92
2019-02-09T22:29:50.922Z,96227.47
2019-02-09T22:32:17.024Z,96233.20
2019-02-09T22:34:43.107Z,96229.98
2019-02-09T22:37:09.025Z,96222.22
2019-02-09T22:39:35.322Z,96216.56
2019-02-09T22:42:01.159Z,96211.64
2019-02-09T22:44:27.035Z,96207.36
2019-02-09T22:46:53.136Z,96206.84
2019-02-09T22:49:19.042Z,96196.86
2019-02-09T22:51:44.987Z,96200.14
2019-02-09T22:54:10.886Z,96207.16
2019-02-09T22:56:36.968Z,96204.72
2019-02-09T22:59:03.011Z,96214.17
2019-02-09T23:01:35.909Z,96204.72
2019-02-09T23:04:05.531Z,96201.46
2019-02-09T23:06:41.225Z,96204.05
2019-02-09T23:09:08.292Z,96202.01
2019-02-09T23:11:34.143Z,96197.64
2019-02-09T23:14:00.287Z,96195.00
2019-02-09T23:16:26.136Z,96188.27
2019-02-09T23:18:51.976Z,96187.22
2019-02-09T23:21:17.791Z,96196.05
2019-02-09T23:23:43.998Z,96177.02
2019-02-09T23:26:09.859Z,96176.47
2019-02-09T23:28:35.684Z,96174.30
2019-02-09T23:31:01.932Z,96174.19
2019-02-09T23:33:27.752Z,96166.43
2019-02-09T23:35:53.878Z,96161.92
2019-02-09T23:38:19.741Z,96158.42
2019-02-09T23:40:45.564Z,96151.14
2019-02-09T23:43:11.673Z,96156.68
2019-02-09T23:45:37.775Z,96152.80
2019-02-09T23:48:03.612Z,96152.43
2019-02-09T23:50:29.437Z,96148.92
2019-02-09T23:52:55.273Z,96148.55
2019-02-09T23:55:21.151Z,96146.01
2019-02-09T23:57:47.212Z,96137.14
